aviador You're here:

RKTU Decoded Metar

CHONGJU in KOREA
Report Time2017-06-29 12:00:00
UTC Time2017-06-29 12:28:55
Flight Rules vfr VFR
Wind290° at 04 kt
W.Decomp.*RWY 24: 2.1 kt HW 3.4 kt RCW
W.Rank290° ranks 9
Current wind is below 290° avg. (5.7)
Visibility8000 m
Phenomena:N/A
Clouds:Scattered 040 Hf
Expected CloudBase > 2,800 ft AGL from Temp-Dew spread
CeilingNone
Temp26°C (ISA +11)
Dew Point19°C (65% RH)
QNH1008 hPa
Density Alt1,998 ft
Elevation217 ft
Report Wrong Elevation
Raw Report
METAR RKTU 291200Z 29004KT 8000 SCT040 26/19 Q1008 NOSIG=####018000128####
SPCN47 CWAO 291215

Extra information for RKTU:More info

Metar Taf Metar & Taf Last 4 Metars F.Rules Stats Wind Profile Meteogram Temp Stats Airport Information Weather charts Add Link Nearby VenuesMetar ALERT Operation Metar Decoded Social comments